Terminal Aerodrome Forecast
Issued by NWS

Home | Current Version | Previous Version | Text Only | Print | Product List | Glossary On
Versions: 1 2 3 4 5 6 7 8 9 10 11 12 13
529
FTUS46 KPDT 042329
TAFDLS
TAF
KDLS 042329Z 0500/0524 32012KT P6SM VCSH SCT050 BKN100
      TEMPO 0500/0504 VRB20G30KT -TSRA BKN050CB BKN100
     FM050400 VRB06KT P6SM VCSH BKN050 BKN100
     FM050800 VRB06KT P6SM SCT050 BKN100
     FM052000 30008KT P6SM BKN050 BKN100
      TEMPO 0520/0524 -TSRA BKN050CB OVC100=

USA.gov is the U.S. government's official web portal to all federal, state and local government web resources and services.